createdAt,value
2022-09-03T00:00:25.562Z,101084.20
2022-09-03T00:03:21.990Z,101087.58
2022-09-03T00:06:17.596Z,101087.54
2022-09-03T00:09:14.134Z,101087.83
2022-09-03T00:12:11.627Z,101090.64
2022-09-03T00:15:06.707Z,101095.73
2022-09-03T00:18:00.064Z,101099.23
2022-09-03T00:20:55.363Z,101099.30
2022-09-03T00:23:49.023Z,101099.75
2022-09-03T00:26:43.443Z,101100.55
2022-09-03T00:29:37.797Z,101107.52
2022-09-03T00:32:36.231Z,101105.34
2022-09-03T00:35:31.994Z,101105.48
2022-09-03T00:38:23.725Z,101102.11
2022-09-03T00:41:31.725Z,101101.98
2022-09-03T00:44:40.048Z,101100.57
2022-09-03T00:47:38.709Z,101097.04
2022-09-03T00:50:42.604Z,101096.44
2022-09-03T00:53:40.369Z,101094.83
2022-09-03T00:56:38.152Z,101093.30
2022-09-03T00:59:38.623Z,101089.02
2022-09-03T01:02:38.324Z,101091.45
2022-09-03T01:05:43.604Z,101098.54
2022-09-03T01:08:50.965Z,101095.49
2022-09-03T01:11:51.856Z,101090.63
2022-09-03T01:14:52.445Z,101090.84
2022-09-03T01:17:52.950Z,101087.43
2022-09-03T01:20:53.489Z,101086.11
2022-09-03T01:24:07.501Z,101087.47
2022-09-03T01:27:16.519Z,101083.86
2022-09-03T01:30:09.325Z,101084.02
2022-09-03T01:33:06.307Z,101084.42
2022-09-03T01:36:05.614Z,101085.82
2022-09-03T01:39:01.238Z,101080.19
2022-09-03T01:42:20.917Z,101080.52
2022-09-03T01:45:29.269Z,101080.63
2022-09-03T01:48:35.060Z,101085.86
2022-09-03T01:51:26.896Z,101083.77
2022-09-03T01:54:38.221Z,101081.59
2022-09-03T01:57:42.062Z,101078.70
2022-09-03T02:00:35.601Z,101076.94
2022-09-03T02:03:33.876Z,101071.63
2022-09-03T02:06:23.606Z,101071.95
2022-09-03T02:09:14.257Z,101077.16
2022-09-03T02:12:09.335Z,101078.11
2022-09-03T02:14:59.329Z,101079.18
2022-09-03T02:17:53.008Z,101078.64
2022-09-03T02:20:43.129Z,101080.17
2022-09-03T02:23:33.305Z,101080.45
2022-09-03T02:26:25.671Z,101071.13
2022-09-03T02:29:17.357Z,101065.81
2022-09-03T02:32:08.149Z,101064.62
2022-09-03T02:34:58.103Z,101061.08
2022-09-03T02:37:48.099Z,101060.81
2022-09-03T02:40:38.091Z,101051.34
2022-09-03T02:43:33.245Z,101043.37
2022-09-03T02:46:27.812Z,101042.59
2022-09-03T02:49:18.104Z,101047.19
2022-09-03T02:52:11.921Z,101049.50
2022-09-03T02:55:01.851Z,101042.22
2022-09-03T02:57:51.775Z,101041.19
2022-09-03T03:00:42.338Z,101042.05
2022-09-03T03:03:32.920Z,101036.12
2022-09-03T03:06:23.292Z,101032.45
2022-09-03T03:09:13.292Z,101029.63
2022-09-03T03:12:03.161Z,101024.77
2022-09-03T03:14:53.164Z,101020.12
2022-09-03T03:17:42.915Z,101020.41
2022-09-03T03:20:32.753Z,101025.13
2022-09-03T03:23:22.932Z,101025.18
2022-09-03T03:26:15.222Z,101023.52
2022-09-03T03:29:05.855Z,101021.48
2022-09-03T03:31:55.455Z,101026.37
2022-09-03T03:34:45.165Z,101032.55
2022-09-03T03:37:36.269Z,101028.84
2022-09-03T03:40:26.709Z,101023.40
2022-09-03T03:43:16.722Z,101030.59
2022-09-03T03:46:07.092Z,101032.32
2022-09-03T03:48:56.530Z,101032.57
2022-09-03T03:51:46.235Z,101029.41
2022-09-03T03:54:36.153Z,101025.70
2022-09-03T03:57:26.212Z,101023.54
2022-09-03T04:00:18.953Z,101017.44
2022-09-03T04:03:08.839Z,101020.23
2022-09-03T04:06:02.832Z,101020.69
2022-09-03T04:08:52.977Z,101020.36
2022-09-03T04:11:43.052Z,101020.85
2022-09-03T04:14:32.966Z,101018.99
2022-09-03T04:17:25.375Z,101014.27
2022-09-03T04:20:16.169Z,101016.62
2022-09-03T04:23:07.184Z,101016.16
2022-09-03T04:25:57.265Z,101017.44
2022-09-03T04:28:47.558Z,101017.98
2022-09-03T04:31:39.114Z,101012.02
2022-09-03T04:34:30.114Z,101008.35
2022-09-03T04:37:20.931Z,101003.74
2022-09-03T04:40:12.590Z,100998.53
2022-09-03T04:43:04.964Z,100995.77
2022-09-03T04:45:56.854Z,100995.73
2022-09-03T04:48:49.213Z,100992.85
2022-09-03T04:51:39.204Z,100989.19
2022-09-03T04:54:29.895Z,100991.86
2022-09-03T04:57:20.069Z,100993.36
2022-09-03T05:00:12.548Z,100989.12
2022-09-03T05:03:05.367Z,100988.98
2022-09-03T05:05:59.440Z,100991.20
2022-09-03T05:08:51.242Z,100995.45
2022-09-03T05:11:41.093Z,100989.85
2022-09-03T05:14:30.646Z,100989.89
2022-09-03T05:17:20.716Z,100990.46
2022-09-03T05:20:12.168Z,100999.33
2022-09-03T05:23:04.854Z,101000.81
2022-09-03T05:26:00.100Z,100999.97
2022-09-03T05:28:53.785Z,101008.58
2022-09-03T05:31:44.012Z,101017.28
2022-09-03T05:34:34.093Z,101020.49
2022-09-03T05:37:24.289Z,101018.67
2022-09-03T05:40:15.032Z,101021.92
2022-09-03T05:43:08.520Z,101021.45
2022-09-03T05:46:02.583Z,101022.26
2022-09-03T05:48:52.532Z,101024.48
2022-09-03T05:51:43.692Z,101015.89
2022-09-03T05:54:33.509Z,101012.83
2022-09-03T05:57:23.838Z,101005.27
2022-09-03T06:00:15.715Z,101001.88
2022-09-03T06:03:05.932Z,100999.74
2022-09-03T06:05:57.594Z,101002.83
2022-09-03T06:08:51.712Z,101011.22
2022-09-03T06:11:42.864Z,101013.06
2022-09-03T06:14:33.301Z,101019.19
2022-09-03T06:17:23.022Z,101018.36
2022-09-03T06:20:13.946Z,101022.34
2022-09-03T06:23:04.182Z,101029.99
2022-09-03T06:26:05.600Z,101036.66
2022-09-03T06:28:56.357Z,101037.92
2022-09-03T06:31:46.908Z,101041.37
2022-09-03T06:34:36.866Z,101038.98
2022-09-03T06:37:26.996Z,101038.11
2022-09-03T06:40:22.609Z,101036.91
2022-09-03T06:43:12.561Z,101038.36
2022-09-03T06:46:04.831Z,101035.48
2022-09-03T06:48:55.795Z,101036.02
2022-09-03T06:51:45.896Z,101032.31
2022-09-03T06:54:35.679Z,101030.46
2022-09-03T06:57:25.622Z,101034.15
2022-09-03T07:00:17.754Z,101039.64
2022-09-03T07:03:08.170Z,101041.86
2022-09-03T07:06:03.637Z,101038.77
2022-09-03T07:08:54.599Z,101029.88
2022-09-03T07:11:48.825Z,101034.99
2022-09-03T07:14:38.773Z,101036.55
2022-09-03T07:17:28.320Z,101039.50
2022-09-03T07:20:18.138Z,101037.92
2022-09-03T07:23:08.247Z,101033.10
2022-09-03T07:26:00.483Z,101034.71
2022-09-03T07:28:51.324Z,101044.30
2022-09-03T07:31:43.684Z,101055.38
2022-09-03T07:34:35.783Z,101064.91
2022-09-03T07:37:27.421Z,101063.89
2022-09-03T07:40:20.436Z,101067.35
2022-09-03T07:43:10.606Z,101076.58
2022-09-03T07:46:01.280Z,101078.88
2022-09-03T07:48:52.176Z,101081.60
2022-09-03T07:51:42.131Z,101079.48
2022-09-03T07:54:32.468Z,101087.84
2022-09-03T07:57:22.914Z,101089.80
2022-09-03T08:00:17.806Z,101087.89
2022-09-03T08:03:08.945Z,101090.70
2022-09-03T08:06:04.330Z,101100.91
2022-09-03T08:09:04.627Z,101101.86
2022-09-03T08:11:55.508Z,101104.02
2022-09-03T08:14:45.207Z,101112.50
2022-09-03T08:17:35.126Z,101123.64
2022-09-03T08:20:26.701Z,101129.75
2022-09-03T08:23:17.042Z,101130.27
2022-09-03T08:26:07.746Z,101131.27
2022-09-03T08:28:57.812Z,101138.13
2022-09-03T08:31:47.722Z,101143.48
2022-09-03T08:34:38.356Z,101145.80
2022-09-03T08:37:29.608Z,101147.41
2022-09-03T08:40:19.537Z,101148.55
2022-09-03T08:43:17.476Z,101156.64
2022-09-03T08:46:07.845Z,101155.95
2022-09-03T08:48:59.012Z,101152.07
2022-09-03T08:51:51.687Z,101146.40
2022-09-03T08:54:42.435Z,101147.77
2022-09-03T08:57:41.693Z,101149.24
2022-09-03T09:00:43.292Z,101152.69
2022-09-03T09:03:43.715Z,101157.20
2022-09-03T09:06:42.191Z,101158.21
2022-09-03T09:09:40.969Z,101160.10
2022-09-03T09:12:47.191Z,101155.87
2022-09-03T09:15:48.132Z,101153.08
2022-09-03T09:18:54.427Z,101148.29
2022-09-03T09:21:49.164Z,101148.95
2022-09-03T09:24:43.306Z,101141.61
2022-09-03T09:27:33.824Z,101137.86
2022-09-03T09:30:24.235Z,101136.42
2022-09-03T09:33:15.133Z,101129.39
2022-09-03T09:36:08.676Z,101122.49
2022-09-03T09:39:09.306Z,101120.41
2022-09-03T09:42:09.595Z,101113.54
2022-09-03T09:45:09.830Z,101107.65
2022-09-03T09:47:59.603Z,101102.00
2022-09-03T09:50:49.328Z,101098.37
2022-09-03T09:53:39.822Z,101102.73
2022-09-03T09:56:30.131Z,101103.33
2022-09-03T09:59:22.180Z,101106.36
2022-09-03T10:02:22.147Z,101103.67
2022-09-03T10:05:25.024Z,101102.92
2022-09-03T10:08:25.954Z,101106.82
2022-09-03T10:11:21.463Z,101115.23
2022-09-03T10:14:20.392Z,101125.23
2022-09-03T10:17:19.841Z,101133.02
2022-09-03T10:20:30.795Z,101139.27
2022-09-03T10:23:24.990Z,101140.08
2022-09-03T10:26:18.858Z,101145.04
2022-09-03T10:29:10.164Z,101147.26
2022-09-03T10:32:11.746Z,101157.72
2022-09-03T10:35:10.622Z,101160.50
2022-09-03T10:38:12.045Z,101160.52
2022-09-03T10:41:13.887Z,101162.02
2022-09-03T10:44:27.124Z,101159.62
2022-09-03T10:47:42.086Z,101161.48
2022-09-03T10:50:35.474Z,101168.15
2022-09-03T10:53:40.917Z,101165.55
2022-09-03T10:56:39.885Z,101169.86
2022-09-03T10:59:45.568Z,101170.56
2022-09-03T11:02:54.001Z,101163.11
2022-09-03T11:05:50.391Z,101163.02
2022-09-03T11:08:44.217Z,101167.08
2022-09-03T11:11:39.412Z,101159.35
2022-09-03T11:14:38.089Z,101153.74
2022-09-03T11:17:32.228Z,101152.91
2022-09-03T11:20:25.158Z,101151.02
2022-09-03T11:23:17.572Z,101148.74
2022-09-03T11:26:13.551Z,101149.65
2022-09-03T11:29:10.501Z,101147.15
2022-09-03T11:32:03.742Z,101148.23
2022-09-03T11:34:55.129Z,101143.29
2022-09-03T11:37:55.154Z,101138.27
2022-09-03T11:41:02.465Z,101134.36
2022-09-03T11:43:53.304Z,101136.98
2022-09-03T11:46:54.510Z,101142.58
2022-09-03T11:49:50.839Z,101147.09
2022-09-03T11:52:40.811Z,101151.41
2022-09-03T11:55:43.323Z,101146.61
2022-09-03T11:58:36.233Z,101140.61
2022-09-03T12:01:28.637Z,101140.65
2022-09-03T12:04:22.031Z,101146.86
2022-09-03T12:07:50.916Z,101146.09
2022-09-03T12:10:53.386Z,101141.96
2022-09-03T12:13:53.056Z,101144.46
2022-09-03T12:17:03.626Z,101140.84
2022-09-03T12:19:56.396Z,101134.61
2022-09-03T12:22:46.555Z,101137.79
2022-09-03T12:25:36.335Z,101135.81
2022-09-03T12:28:31.050Z,101141.88
2022-09-03T12:31:22.997Z,101144.22
2022-09-03T12:34:17.382Z,101137.77
2022-09-03T12:40:34.714Z,101134.10
2022-09-03T12:43:49.838Z,101142.22
2022-09-03T12:46:40.429Z,101151.30
2022-09-03T12:49:35.139Z,101155.30
2022-09-03T12:52:30.868Z,101141.79
2022-09-03T12:55:36.952Z,101146.20
2022-09-03T12:58:35.616Z,101149.45
2022-09-03T13:01:29.239Z,101143.55
2022-09-03T13:04:26.807Z,101148.52
2022-09-03T13:07:25.024Z,101155.59
2022-09-03T13:10:25.117Z,101154.52
2022-09-03T13:13:25.517Z,101148.21
2022-09-03T13:16:54.234Z,101146.21
2022-09-03T13:19:56.836Z,101148.70
2022-09-03T13:23:00.100Z,101154.69
2022-09-03T13:26:05.992Z,101159.77
2022-09-03T13:29:18.733Z,101163.60
2022-09-03T13:32:19.703Z,101164.45
2022-09-03T13:35:19.662Z,101162.29
2022-09-03T13:38:27.276Z,101154.27
2022-09-03T13:41:26.467Z,101150.39
2022-09-03T13:44:32.592Z,101133.64
2022-09-03T13:47:32.463Z,101132.83
2022-09-03T13:50:27.338Z,101136.24
2022-09-03T13:53:26.518Z,101138.58
2022-09-03T13:56:36.168Z,101131.86
2022-09-03T13:59:35.500Z,101123.63
2022-09-03T14:02:35.406Z,101122.77
2022-09-03T14:05:40.974Z,101129.80
2022-09-03T14:08:35.719Z,101136.48
2022-09-03T14:11:36.719Z,101129.52
2022-09-03T14:14:42.871Z,101124.73
2022-09-03T14:17:43.118Z,101121.60
2022-09-03T14:20:38.493Z,101126.92
2022-09-03T14:23:37.863Z,101120.55
2022-09-03T14:26:39.007Z,101121.95
2022-09-03T14:29:32.719Z,101125.33
2022-09-03T14:32:32.177Z,101121.05
2022-09-03T14:35:58.215Z,101117.86
2022-09-03T14:39:04.158Z,101144.55
2022-09-03T14:42:24.955Z,101167.99
2022-09-03T14:45:44.704Z,101180.08
2022-09-03T14:49:07.500Z,101182.71
2022-09-03T14:52:21.025Z,101188.12
2022-09-03T14:55:34.713Z,101191.23
2022-09-03T14:58:42.103Z,101192.48
2022-09-03T15:01:39.041Z,101200.24
2022-09-03T15:04:53.059Z,101227.05
2022-09-03T15:07:50.905Z,101249.17
2022-09-03T15:10:47.634Z,101248.20
2022-09-03T15:13:44.012Z,101234.52
2022-09-03T15:16:50.456Z,101214.98
2022-09-03T15:19:59.173Z,101201.17
2022-09-03T15:23:12.050Z,101201.34
2022-09-03T15:26:20.241Z,101209.15
2022-09-03T15:29:26.553Z,101214.34
2022-09-03T15:32:27.833Z,101223.73
2022-09-03T15:35:33.889Z,101223.95
2022-09-03T15:38:36.805Z,101221.34
2022-09-03T15:41:41.614Z,101217.75
2022-09-03T15:44:43.709Z,101212.61
2022-09-03T15:47:43.166Z,101206.92
2022-09-03T15:50:54.925Z,101209.94
2022-09-03T15:53:55.625Z,101205.54
2022-09-03T15:56:56.755Z,101193.66
2022-09-03T15:59:56.622Z,101194.00
2022-09-03T16:02:52.396Z,101194.54
2022-09-03T16:05:47.800Z,101194.86
2022-09-03T16:08:45.328Z,101196.41
2022-09-03T16:11:42.554Z,101198.71
2022-09-03T16:14:37.206Z,101203.02
2022-09-03T16:17:33.092Z,101204.40
2022-09-03T16:20:27.249Z,101203.19
2022-09-03T16:23:22.686Z,101211.85
2022-09-03T16:26:19.803Z,101209.80
2022-09-03T16:29:15.699Z,101214.54
2022-09-03T16:32:19.525Z,101210.30
2022-09-03T16:35:23.707Z,101212.57
2022-09-03T16:38:35.515Z,101229.09
2022-09-03T16:41:30.782Z,101235.80
2022-09-03T16:44:25.191Z,101228.71
2022-09-03T16:47:25.894Z,101229.50
2022-09-03T16:50:28.938Z,101231.24
2022-09-03T16:53:29.279Z,101227.16
2022-09-03T16:56:34.372Z,101227.08
2022-09-03T16:59:48.580Z,101228.96
2022-09-03T17:03:13.819Z,101230.08
2022-09-03T17:06:46.189Z,101230.27
2022-09-03T17:09:52.975Z,101231.77
2022-09-03T17:12:58.074Z,101231.31
2022-09-03T17:15:57.002Z,101235.48
2022-09-03T17:18:55.269Z,101245.10
2022-09-03T17:21:57.245Z,101246.84
2022-09-03T17:24:52.871Z,101245.81
2022-09-03T17:27:51.703Z,101245.91
2022-09-03T17:30:49.899Z,101237.58
2022-09-03T17:33:57.921Z,101240.27
2022-09-03T17:37:06.816Z,101241.91
2022-09-03T17:40:20.226Z,101245.38
2022-09-03T17:43:19.899Z,101245.06
2022-09-03T17:46:22.994Z,101243.28
2022-09-03T17:49:23.117Z,101246.42
2022-09-03T17:52:28.030Z,101246.61
2022-09-03T17:55:25.767Z,101250.12
2022-09-03T17:58:20.499Z,101254.92
2022-09-03T18:01:18.283Z,101258.21
2022-09-03T18:04:28.277Z,101259.32
2022-09-03T18:07:27.758Z,101263.94
2022-09-03T18:10:26.827Z,101265.44
2022-09-03T18:13:24.246Z,101266.94
2022-09-03T18:16:20.533Z,101269.14
2022-09-03T18:19:19.097Z,101276.76
2022-09-03T18:22:26.665Z,101276.75
2022-09-03T18:25:36.241Z,101276.07
2022-09-03T18:28:51.002Z,101275.73
2022-09-03T18:31:58.708Z,101275.11
2022-09-03T18:35:07.402Z,101272.38
2022-09-03T18:38:15.191Z,101272.87
2022-09-03T18:41:31.935Z,101277.35
2022-09-03T18:44:54.721Z,101282.68
2022-09-03T18:48:21.487Z,101288.09
2022-09-03T18:51:36.984Z,101288.70
2022-09-03T18:55:07.793Z,101293.58
2022-09-03T18:58:27.405Z,101298.27
2022-09-03T19:01:48.103Z,101303.39
2022-09-03T19:05:10.051Z,101310.41
2022-09-03T19:08:25.307Z,101315.17
2022-09-03T19:11:46.332Z,101319.68
2022-09-03T19:15:02.959Z,101323.36
2022-09-03T19:18:26.737Z,101329.61
2022-09-03T19:21:46.493Z,101338.98
2022-09-03T19:24:53.748Z,101343.17
2022-09-03T19:28:13.693Z,101338.00
2022-09-03T19:31:57.570Z,101331.15
2022-09-03T19:35:23.832Z,101331.14
2022-09-03T19:38:40.670Z,101336.11
2022-09-03T19:41:52.082Z,101335.16
2022-09-03T19:45:10.441Z,101325.59
2022-09-03T19:48:27.715Z,101320.02
2022-09-03T19:51:39.717Z,101323.90
2022-09-03T19:54:48.658Z,101319.18
2022-09-03T19:57:56.150Z,101314.05
2022-09-03T20:01:04.022Z,101313.30
2022-09-03T20:04:11.396Z,101315.73
2022-09-03T20:07:22.290Z,101322.00
2022-09-03T20:10:25.177Z,101328.20
2022-09-03T20:13:17.380Z,101329.29
2022-09-03T20:16:14.081Z,101326.58
2022-09-03T20:19:13.597Z,101332.48
2022-09-03T20:22:16.878Z,101338.15
2022-09-03T20:25:27.006Z,101337.66
2022-09-03T20:28:33.681Z,101336.71
2022-09-03T20:31:34.009Z,101337.77
2022-09-03T20:34:42.609Z,101341.17
2022-09-03T20:37:41.873Z,101340.28
2022-09-03T20:40:43.391Z,101330.18
2022-09-03T20:44:03.749Z,101328.87
2022-09-03T20:47:06.196Z,101325.46
2022-09-03T20:50:05.477Z,101322.55
2022-09-03T20:53:10.459Z,101323.02
2022-09-03T20:56:11.396Z,101319.41
2022-09-03T20:59:09.435Z,101311.83
2022-09-03T21:02:07.107Z,101307.70
2022-09-03T21:05:10.843Z,101302.14
2022-09-03T21:08:11.306Z,101310.35
2022-09-03T21:11:07.309Z,101310.81
2022-09-03T21:14:05.546Z,101311.77
2022-09-03T21:17:05.941Z,101315.05
2022-09-03T21:20:10.566Z,101322.02
2022-09-03T21:23:13.478Z,101321.85
2022-09-03T21:26:13.914Z,101319.88
2022-09-03T21:29:17.351Z,101315.42
2022-09-03T21:32:16.891Z,101310.60
2022-09-03T21:35:17.292Z,101311.79
2022-09-03T21:38:09.644Z,101322.77
2022-09-03T21:41:06.792Z,101319.73
2022-09-03T21:44:03.945Z,101316.80
2022-09-03T21:46:59.681Z,101315.36
2022-09-03T21:49:57.802Z,101313.22
2022-09-03T21:52:53.663Z,101317.53
2022-09-03T21:55:52.288Z,101318.64
2022-09-03T21:58:58.337Z,101314.66
2022-09-03T22:02:00.373Z,101313.23
2022-09-03T22:04:50.833Z,101312.55
2022-09-03T22:07:55.480Z,101308.66
2022-09-03T22:10:58.150Z,101306.02
2022-09-03T22:13:57.458Z,101309.42
2022-09-03T22:16:52.928Z,101313.89
2022-09-03T22:19:43.125Z,101308.45
2022-09-03T22:22:40.932Z,101304.31
2022-09-03T22:25:41.947Z,101303.71
2022-09-03T22:28:36.913Z,101296.77
2022-09-03T22:31:35.562Z,101298.66
2022-09-03T22:34:39.112Z,101296.02
2022-09-03T22:37:47.389Z,101298.71
2022-09-03T22:40:46.865Z,101299.89
2022-09-03T22:43:44.446Z,101304.52
2022-09-03T22:46:41.420Z,101301.17
2022-09-03T22:49:42.262Z,101302.23
2022-09-03T22:52:40.550Z,101303.30
2022-09-03T22:55:30.664Z,101298.95
2022-09-03T22:58:24.633Z,101295.25
2022-09-03T23:01:23.247Z,101297.36
2022-09-03T23:04:29.327Z,101296.95
2022-09-03T23:07:28.340Z,101289.39
2022-09-03T23:10:25.767Z,101284.55
2022-09-03T23:13:21.164Z,101285.52
2022-09-03T23:16:18.371Z,101287.27
2022-09-03T23:22:13.565Z,101294.64
2022-09-03T23:25:09.858Z,101304.94
2022-09-03T23:28:02.889Z,101307.54
2022-09-03T23:30:52.904Z,101312.29
2022-09-03T23:33:42.457Z,101311.52
2022-09-03T23:40:26.250Z,101314.81
2022-09-03T23:43:53.669Z,101320.94
2022-09-03T23:46:54.981Z,101318.98
2022-09-03T23:49:59.062Z,101319.98
2022-09-03T23:53:07.227Z,101324.47
2022-09-03T23:56:17.443Z,101328.64
2022-09-03T23:59:16.317Z,101330.49
